sensor_id;sensor_type;location;lat;lon;timestamp;temperature;humidity
49132;DHT22;35149;51.196;6.204;2022-12-07T00:01:49;8.40;73.80
49132;DHT22;35149;51.196;6.204;2022-12-07T00:04:18;8.40;73.80
49132;DHT22;35149;51.196;6.204;2022-12-07T00:06:46;8.40;73.80
49132;DHT22;35149;51.196;6.204;2022-12-07T00:09:21;8.40;73.80
49132;DHT22;35149;51.196;6.204;2022-12-07T00:11:50;8.40;73.80
49132;DHT22;35149;51.196;6.204;2022-12-07T00:14:18;8.40;73.80
49132;DHT22;35149;51.196;6.204;2022-12-07T00:16:51;8.30;73.70
49132;DHT22;35149;51.196;6.204;2022-12-07T00:19:18;8.30;73.70
49132;DHT22;35149;51.196;6.204;2022-12-07T00:21:52;8.30;73.70
49132;DHT22;35149;51.196;6.204;2022-12-07T00:24:18;8.30;73.60
49132;DHT22;35149;51.196;6.204;2022-12-07T00:26:48;8.30;73.60
49132;DHT22;35149;51.196;6.204;2022-12-07T00:29:18;8.30;73.70
49132;DHT22;35149;51.196;6.204;2022-12-07T00:31:48;8.20;73.80
49132;DHT22;35149;51.196;6.204;2022-12-07T00:34:17;8.20;73.80
49132;DHT22;35149;51.196;6.204;2022-12-07T00:36:50;8.20;73.90
49132;DHT22;35149;51.196;6.204;2022-12-07T00:39:21;8.20;74.00
49132;DHT22;35149;51.196;6.204;2022-12-07T00:41:52;8.20;74.20
49132;DHT22;35149;51.196;6.204;2022-12-07T00:44:19;8.20;74.30
49132;DHT22;35149;51.196;6.204;2022-12-07T00:46:46;8.20;74.30
49132;DHT22;35149;51.196;6.204;2022-12-07T00:49:15;8.20;74.40
49132;DHT22;35149;51.196;6.204;2022-12-07T00:51:42;8.20;74.40
49132;DHT22;35149;51.196;6.204;2022-12-07T00:54:13;8.30;74.40
49132;DHT22;35149;51.196;6.204;2022-12-07T00:56:42;8.30;74.40
49132;DHT22;35149;51.196;6.204;2022-12-07T00:59:12;8.30;74.40
49132;DHT22;35149;51.196;6.204;2022-12-07T01:01:41;8.30;74.30
49132;DHT22;35149;51.196;6.204;2022-12-07T01:04:09;8.40;74.40
49132;DHT22;35149;51.196;6.204;2022-12-07T01:06:37;8.40;74.40
49132;DHT22;35149;51.196;6.204;2022-12-07T01:09:06;8.40;74.30
49132;DHT22;35149;51.196;6.204;2022-12-07T01:11:36;8.40;74.40
49132;DHT22;35149;51.196;6.204;2022-12-07T01:14:02;8.40;74.30
49132;DHT22;35149;51.196;6.204;2022-12-07T01:16:32;8.40;74.30
49132;DHT22;35149;51.196;6.204;2022-12-07T01:19:00;8.40;74.30
49132;DHT22;35149;51.196;6.204;2022-12-07T01:21:29;8.40;74.40
49132;DHT22;35149;51.196;6.204;2022-12-07T01:23:59;8.50;74.40
49132;DHT22;35149;51.196;6.204;2022-12-07T01:26:32;8.50;74.30
49132;DHT22;35149;51.196;6.204;2022-12-07T01:28:58;8.50;74.20
49132;DHT22;35149;51.196;6.204;2022-12-07T01:31:29;8.50;74.20
49132;DHT22;35149;51.196;6.204;2022-12-07T01:33:58;8.50;74.00
49132;DHT22;35149;51.196;6.204;2022-12-07T01:36:26;8.50;74.00
49132;DHT22;35149;51.196;6.204;2022-12-07T01:39:02;8.50;74.00
49132;DHT22;35149;51.196;6.204;2022-12-07T01:41:31;8.50;74.00
49132;DHT22;35149;51.196;6.204;2022-12-07T01:44:18;8.50;73.90
49132;DHT22;35149;51.196;6.204;2022-12-07T01:46:57;8.50;73.90
49132;DHT22;35149;51.196;6.204;2022-12-07T01:49:33;8.40;73.70
49132;DHT22;35149;51.196;6.204;2022-12-07T01:52:13;8.40;73.70
49132;DHT22;35149;51.196;6.204;2022-12-07T01:54:44;8.40;73.70
49132;DHT22;35149;51.196;6.204;2022-12-07T01:57:12;8.40;73.70
49132;DHT22;35149;51.196;6.204;2022-12-07T01:59:40;8.30;73.70
49132;DHT22;35149;51.196;6.204;2022-12-07T02:02:18;8.30;73.80
49132;DHT22;35149;51.196;6.204;2022-12-07T02:04:46;8.30;73.90
49132;DHT22;35149;51.196;6.204;2022-12-07T02:07:15;8.30;73.90
49132;DHT22;35149;51.196;6.204;2022-12-07T02:09:46;8.20;73.80
49132;DHT22;35149;51.196;6.204;2022-12-07T02:12:15;8.20;73.70
49132;DHT22;35149;51.196;6.204;2022-12-07T02:14:42;8.20;73.70
49132;DHT22;35149;51.196;6.204;2022-12-07T02:17:28;8.20;73.80
49132;DHT22;35149;51.196;6.204;2022-12-07T02:20:10;8.20;74.20
49132;DHT22;35149;51.196;6.204;2022-12-07T02:23:12;8.10;74.20
49132;DHT22;35149;51.196;6.204;2022-12-07T02:28:36;8.10;74.20
49132;DHT22;35149;51.196;6.204;2022-12-07T02:31:15;8.10;74.40
49132;DHT22;35149;51.196;6.204;2022-12-07T02:33:51;8.10;74.50
49132;DHT22;35149;51.196;6.204;2022-12-07T02:36:28;8.10;74.50
49132;DHT22;35149;51.196;6.204;2022-12-07T02:41:35;8.10;74.50
49132;DHT22;35149;51.196;6.204;2022-12-07T02:44:06;8.10;74.60
49132;DHT22;35149;51.196;6.204;2022-12-07T02:46:43;8.10;74.50
49132;DHT22;35149;51.196;6.204;2022-12-07T02:49:11;8.10;74.60
49132;DHT22;35149;51.196;6.204;2022-12-07T02:51:43;8.20;74.70
49132;DHT22;35149;51.196;6.204;2022-12-07T02:54:18;8.20;74.80
49132;DHT22;35149;51.196;6.204;2022-12-07T03:02:38;8.20;74.60
49132;DHT22;35149;51.196;6.204;2022-12-07T03:05:40;8.30;74.70
49132;DHT22;35149;51.196;6.204;2022-12-07T03:08:32;8.20;74.70
49132;DHT22;35149;51.196;6.204;2022-12-07T03:11:07;8.30;74.50
49132;DHT22;35149;51.196;6.204;2022-12-07T03:19:00;8.30;74.20
49132;DHT22;35149;51.196;6.204;2022-12-07T03:21:34;8.30;74.30
49132;DHT22;35149;51.196;6.204;2022-12-07T03:24:09;8.20;74.30
49132;DHT22;35149;51.196;6.204;2022-12-07T03:26:42;8.30;74.30
49132;DHT22;35149;51.196;6.204;2022-12-07T03:29:19;8.30;74.30
49132;DHT22;35149;51.196;6.204;2022-12-07T03:31:53;8.20;74.20
49132;DHT22;35149;51.196;6.204;2022-12-07T03:34:31;8.20;74.30
49132;DHT22;35149;51.196;6.204;2022-12-07T03:37:10;8.20;74.40
49132;DHT22;35149;51.196;6.204;2022-12-07T03:39:45;8.30;74.50
49132;DHT22;35149;51.196;6.204;2022-12-07T03:42:15;8.20;74.40
49132;DHT22;35149;51.196;6.204;2022-12-07T03:44:42;8.30;74.40
49132;DHT22;35149;51.196;6.204;2022-12-07T03:49:49;8.20;74.00
49132;DHT22;35149;51.196;6.204;2022-12-07T03:57:51;8.20;74.00
49132;DHT22;35149;51.196;6.204;2022-12-07T04:00:19;8.20;73.80
49132;DHT22;35149;51.196;6.204;2022-12-07T04:02:46;8.10;73.60
49132;DHT22;35149;51.196;6.204;2022-12-07T04:05:13;8.10;73.50
49132;DHT22;35149;51.196;6.204;2022-12-07T04:07:42;8.00;73.40
49132;DHT22;35149;51.196;6.204;2022-12-07T04:10:13;8.00;73.50
49132;DHT22;35149;51.196;6.204;2022-12-07T04:12:40;7.90;73.50
49132;DHT22;35149;51.196;6.204;2022-12-07T04:15:10;7.90;73.60
49132;DHT22;35149;51.196;6.204;2022-12-07T04:17:36;7.90;73.70
49132;DHT22;35149;51.196;6.204;2022-12-07T04:20:06;7.90;73.70
49132;DHT22;35149;51.196;6.204;2022-12-07T04:22:33;7.80;73.90
49132;DHT22;35149;51.196;6.204;2022-12-07T04:25:00;7.80;74.00
49132;DHT22;35149;51.196;6.204;2022-12-07T04:27:27;7.80;74.20
49132;DHT22;35149;51.196;6.204;2022-12-07T04:29:53;7.80;74.50
49132;DHT22;35149;51.196;6.204;2022-12-07T04:32:22;7.80;74.80
49132;DHT22;35149;51.196;6.204;2022-12-07T04:34:51;7.80;74.80
49132;DHT22;35149;51.196;6.204;2022-12-07T04:37:22;7.80;74.80
49132;DHT22;35149;51.196;6.204;2022-12-07T04:39:49;7.90;74.80
49132;DHT22;35149;51.196;6.204;2022-12-07T04:42:16;7.90;74.80
49132;DHT22;35149;51.196;6.204;2022-12-07T04:44:42;7.90;74.80
49132;DHT22;35149;51.196;6.204;2022-12-07T04:47:09;7.90;74.80
49132;DHT22;35149;51.196;6.204;2022-12-07T04:49:36;7.90;74.80
49132;DHT22;35149;51.196;6.204;2022-12-07T04:52:02;8.00;74.80
49132;DHT22;35149;51.196;6.204;2022-12-07T04:54:29;8.00;74.70
49132;DHT22;35149;51.196;6.204;2022-12-07T04:56:56;8.00;74.50
49132;DHT22;35149;51.196;6.204;2022-12-07T04:59:23;8.00;74.50
49132;DHT22;35149;51.196;6.204;2022-12-07T05:01:49;8.10;74.40
49132;DHT22;35149;51.196;6.204;2022-12-07T05:04:16;8.00;74.20
49132;DHT22;35149;51.196;6.204;2022-12-07T05:06:44;8.00;74.20
49132;DHT22;35149;51.196;6.204;2022-12-07T05:09:11;8.00;74.10
49132;DHT22;35149;51.196;6.204;2022-12-07T05:11:38;8.00;74.20
49132;DHT22;35149;51.196;6.204;2022-12-07T05:14:16;8.00;74.20
49132;DHT22;35149;51.196;6.204;2022-12-07T05:16:44;8.00;74.20
49132;DHT22;35149;51.196;6.204;2022-12-07T05:19:12;8.00;74.20
49132;DHT22;35149;51.196;6.204;2022-12-07T05:21:39;8.00;74.30
49132;DHT22;35149;51.196;6.204;2022-12-07T05:24:09;8.00;74.30
49132;DHT22;35149;51.196;6.204;2022-12-07T05:26:36;8.00;74.30
49132;DHT22;35149;51.196;6.204;2022-12-07T05:29:06;8.00;74.40
49132;DHT22;35149;51.196;6.204;2022-12-07T05:31:33;8.00;74.40
49132;DHT22;35149;51.196;6.204;2022-12-07T05:34:06;8.00;74.40
49132;DHT22;35149;51.196;6.204;2022-12-07T05:36:33;8.00;74.30
49132;DHT22;35149;51.196;6.204;2022-12-07T05:39:02;8.00;74.30
49132;DHT22;35149;51.196;6.204;2022-12-07T05:41:28;8.00;74.20
49132;DHT22;35149;51.196;6.204;2022-12-07T05:44:14;8.00;74.20
49132;DHT22;35149;51.196;6.204;2022-12-07T05:46:41;8.10;74.20
49132;DHT22;35149;51.196;6.204;2022-12-07T05:49:08;8.10;74.80
49132;DHT22;35149;51.196;6.204;2022-12-07T05:51:38;8.10;74.80
49132;DHT22;35149;51.196;6.204;2022-12-07T05:54:05;8.10;74.70
49132;DHT22;35149;51.196;6.204;2022-12-07T05:56:36;8.10;74.00
49132;DHT22;35149;51.196;6.204;2022-12-07T05:59:03;8.10;74.00
49132;DHT22;35149;51.196;6.204;2022-12-07T06:01:54;8.00;73.90
49132;DHT22;35149;51.196;6.204;2022-12-07T06:04:25;8.10;74.00
49132;DHT22;35149;51.196;6.204;2022-12-07T06:06:52;8.00;73.90
49132;DHT22;35149;51.196;6.204;2022-12-07T06:09:20;8.00;73.90
49132;DHT22;35149;51.196;6.204;2022-12-07T06:11:49;8.00;74.00
49132;DHT22;35149;51.196;6.204;2022-12-07T06:14:35;8.00;74.10
49132;DHT22;35149;51.196;6.204;2022-12-07T06:17:04;8.00;74.10
49132;DHT22;35149;51.196;6.204;2022-12-07T06:19:33;8.00;74.20
49132;DHT22;35149;51.196;6.204;2022-12-07T06:21:59;8.00;74.20
49132;DHT22;35149;51.196;6.204;2022-12-07T06:24:26;7.90;74.20
49132;DHT22;35149;51.196;6.204;2022-12-07T06:26:53;8.00;74.20
49132;DHT22;35149;51.196;6.204;2022-12-07T06:29:22;8.10;74.20
49132;DHT22;35149;51.196;6.204;2022-12-07T06:31:51;7.90;74.00
49132;DHT22;35149;51.196;6.204;2022-12-07T06:34:20;7.90;73.90
49132;DHT22;35149;51.196;6.204;2022-12-07T06:36:50;7.90;73.90
49132;DHT22;35149;51.196;6.204;2022-12-07T06:39:25;7.80;74.40
49132;DHT22;35149;51.196;6.204;2022-12-07T06:41:54;7.80;73.70
49132;DHT22;35149;51.196;6.204;2022-12-07T06:44:21;7.80;73.60
49132;DHT22;35149;51.196;6.204;2022-12-07T06:46:49;7.80;73.60
49132;DHT22;35149;51.196;6.204;2022-12-07T06:49:16;7.70;73.50
49132;DHT22;35149;51.196;6.204;2022-12-07T06:51:43;7.70;73.60
49132;DHT22;35149;51.196;6.204;2022-12-07T06:54:11;7.60;74.20
49132;DHT22;35149;51.196;6.204;2022-12-07T06:56:44;7.60;73.70
49132;DHT22;35149;51.196;6.204;2022-12-07T06:59:11;7.50;73.70
49132;DHT22;35149;51.196;6.204;2022-12-07T07:01:38;7.50;73.70
49132;DHT22;35149;51.196;6.204;2022-12-07T07:04:05;7.40;73.80
49132;DHT22;35149;51.196;6.204;2022-12-07T07:06:41;7.40;74.00
49132;DHT22;35149;51.196;6.204;2022-12-07T07:09:10;7.30;74.20
49132;DHT22;35149;51.196;6.204;2022-12-07T07:11:36;7.30;74.40
49132;DHT22;35149;51.196;6.204;2022-12-07T07:14:05;7.30;74.60
49132;DHT22;35149;51.196;6.204;2022-12-07T07:16:32;7.30;74.70
49132;DHT22;35149;51.196;6.204;2022-12-07T07:19:02;7.30;74.90
49132;DHT22;35149;51.196;6.204;2022-12-07T07:21:31;7.40;75.00
49132;DHT22;35149;51.196;6.204;2022-12-07T07:24:01;7.40;75.00
49132;DHT22;35149;51.196;6.204;2022-12-07T07:26:28;7.40;74.90
49132;DHT22;35149;51.196;6.204;2022-12-07T07:28:57;7.30;74.80
49132;DHT22;35149;51.196;6.204;2022-12-07T07:31:26;7.40;74.70
49132;DHT22;35149;51.196;6.204;2022-12-07T07:33:53;7.40;74.70
49132;DHT22;35149;51.196;6.204;2022-12-07T07:36:21;7.30;74.60
49132;DHT22;35149;51.196;6.204;2022-12-07T07:38:48;7.30;74.60
49132;DHT22;35149;51.196;6.204;2022-12-07T07:41:15;7.30;74.60
49132;DHT22;35149;51.196;6.204;2022-12-07T07:43:41;7.30;74.50
49132;DHT22;35149;51.196;6.204;2022-12-07T07:46:08;7.30;74.50
49132;DHT22;35149;51.196;6.204;2022-12-07T07:48:35;7.20;74.50
49132;DHT22;35149;51.196;6.204;2022-12-07T07:51:05;7.20;74.60
49132;DHT22;35149;51.196;6.204;2022-12-07T07:53:36;7.20;74.70
49132;DHT22;35149;51.196;6.204;2022-12-07T07:56:06;7.20;74.70
49132;DHT22;35149;51.196;6.204;2022-12-07T07:58:32;7.10;74.80
49132;DHT22;35149;51.196;6.204;2022-12-07T08:01:07;7.20;74.90
49132;DHT22;35149;51.196;6.204;2022-12-07T08:03:35;7.20;75.20
49132;DHT22;35149;51.196;6.204;2022-12-07T08:06:03;7.20;75.10
49132;DHT22;35149;51.196;6.204;2022-12-07T08:08:36;7.10;75.10
49132;DHT22;35149;51.196;6.204;2022-12-07T08:11:09;7.10;75.20
49132;DHT22;35149;51.196;6.204;2022-12-07T08:13:36;7.20;75.40
49132;DHT22;35149;51.196;6.204;2022-12-07T08:16:07;7.20;75.50
49132;DHT22;35149;51.196;6.204;2022-12-07T08:18:36;7.20;75.50
49132;DHT22;35149;51.196;6.204;2022-12-07T08:21:03;7.20;75.40
49132;DHT22;35149;51.196;6.204;2022-12-07T08:23:32;7.20;75.20
49132;DHT22;35149;51.196;6.204;2022-12-07T08:26:08;7.20;75.20
49132;DHT22;35149;51.196;6.204;2022-12-07T08:28:35;7.20;75.10
49132;DHT22;35149;51.196;6.204;2022-12-07T08:31:06;7.20;75.10
49132;DHT22;35149;51.196;6.204;2022-12-07T08:33:34;7.20;75.10
49132;DHT22;35149;51.196;6.204;2022-12-07T08:36:06;7.20;75.10
49132;DHT22;35149;51.196;6.204;2022-12-07T08:38:37;7.20;75.30
49132;DHT22;35149;51.196;6.204;2022-12-07T08:41:04;7.20;76.00
49132;DHT22;35149;51.196;6.204;2022-12-07T08:43:34;7.20;75.40
49132;DHT22;35149;51.196;6.204;2022-12-07T08:48:58;7.20;76.00
49132;DHT22;35149;51.196;6.204;2022-12-07T08:51:28;7.30;76.00
49132;DHT22;35149;51.196;6.204;2022-12-07T08:53:58;7.30;76.00
49132;DHT22;35149;51.196;6.204;2022-12-07T08:56:26;7.30;76.10
49132;DHT22;35149;51.196;6.204;2022-12-07T08:58:54;7.40;76.00
49132;DHT22;35149;51.196;6.204;2022-12-07T09:01:21;7.40;75.90
49132;DHT22;35149;51.196;6.204;2022-12-07T09:03:47;7.50;75.80
49132;DHT22;35149;51.196;6.204;2022-12-07T09:06:14;7.50;75.60
49132;DHT22;35149;51.196;6.204;2022-12-07T09:08:45;7.50;75.60
49132;DHT22;35149;51.196;6.204;2022-12-07T09:11:14;7.60;75.70
49132;DHT22;35149;51.196;6.204;2022-12-07T09:13:40;7.60;75.80
49132;DHT22;35149;51.196;6.204;2022-12-07T09:16:07;7.60;76.00
49132;DHT22;35149;51.196;6.204;2022-12-07T09:18:34;7.70;76.20
49132;DHT22;35149;51.196;6.204;2022-12-07T09:21:01;7.70;76.20
49132;DHT22;35149;51.196;6.204;2022-12-07T09:23:29;7.80;76.20
49132;DHT22;35149;51.196;6.204;2022-12-07T09:26:05;7.90;76.10
49132;DHT22;35149;51.196;6.204;2022-12-07T09:28:36;7.90;76.10
49132;DHT22;35149;51.196;6.204;2022-12-07T09:31:06;8.00;76.00
49132;DHT22;35149;51.196;6.204;2022-12-07T09:33:59;8.10;75.90
49132;DHT22;35149;51.196;6.204;2022-12-07T09:36:27;8.10;75.90
49132;DHT22;35149;51.196;6.204;2022-12-07T09:38:54;8.10;75.60
49132;DHT22;35149;51.196;6.204;2022-12-07T09:41:23;8.20;75.40
49132;DHT22;35149;51.196;6.204;2022-12-07T09:43:58;8.20;75.20
49132;DHT22;35149;51.196;6.204;2022-12-07T09:46:29;8.30;75.00
49132;DHT22;35149;51.196;6.204;2022-12-07T09:49:00;8.30;74.60
49132;DHT22;35149;51.196;6.204;2022-12-07T09:51:31;8.30;74.40
49132;DHT22;35149;51.196;6.204;2022-12-07T09:53:58;8.20;74.30
49132;DHT22;35149;51.196;6.204;2022-12-07T09:56:25;8.20;74.20
49132;DHT22;35149;51.196;6.204;2022-12-07T09:59:01;8.20;74.40
49132;DHT22;35149;51.196;6.204;2022-12-07T10:01:30;8.20;74.60
49132;DHT22;35149;51.196;6.204;2022-12-07T10:04:09;8.20;74.80
49132;DHT22;35149;51.196;6.204;2022-12-07T10:06:40;8.10;75.00
49132;DHT22;35149;51.196;6.204;2022-12-07T10:09:14;8.20;75.40
49132;DHT22;35149;51.196;6.204;2022-12-07T10:14:36;8.20;75.50
49132;DHT22;35149;51.196;6.204;2022-12-07T10:17:47;8.30;75.70
49132;DHT22;35149;51.196;6.204;2022-12-07T10:20:24;8.40;76.30
49132;DHT22;35149;51.196;6.204;2022-12-07T10:23:03;8.50;76.40
49132;DHT22;35149;51.196;6.204;2022-12-07T10:25:35;8.60;76.60
49132;DHT22;35149;51.196;6.204;2022-12-07T10:33:48;9.00;75.60
49132;DHT22;35149;51.196;6.204;2022-12-07T10:38:52;9.10;74.80
49132;DHT22;35149;51.196;6.204;2022-12-07T10:41:22;9.20;74.70
49132;DHT22;35149;51.196;6.204;2022-12-07T10:43:54;9.20;74.30
49132;DHT22;35149;51.196;6.204;2022-12-07T10:49:46;9.30;73.20
49132;DHT22;35149;51.196;6.204;2022-12-07T10:55:26;9.40;73.10
49132;DHT22;35149;51.196;6.204;2022-12-07T10:58:20;9.40;73.10
49132;DHT22;35149;51.196;6.204;2022-12-07T11:04:10;9.40;72.90
49132;DHT22;35149;51.196;6.204;2022-12-07T11:07:06;9.50;72.60
49132;DHT22;35149;51.196;6.204;2022-12-07T11:12:54;9.50;72.40
49132;DHT22;35149;51.196;6.204;2022-12-07T11:18:59;9.60;72.00
49132;DHT22;35149;51.196;6.204;2022-12-07T11:21:49;9.50;71.80
49132;DHT22;35149;51.196;6.204;2022-12-07T11:24:49;9.60;72.00
49132;DHT22;35149;51.196;6.204;2022-12-07T11:30:36;9.60;72.10
49132;DHT22;35149;51.196;6.204;2022-12-07T11:33:19;9.60;72.30
49132;DHT22;35149;51.196;6.204;2022-12-07T11:38:49;9.60;72.30
49132;DHT22;35149;51.196;6.204;2022-12-07T11:41:22;9.70;72.80
49132;DHT22;35149;51.196;6.204;2022-12-07T11:44:06;9.70;72.10
49132;DHT22;35149;51.196;6.204;2022-12-07T11:46:51;9.70;72.00
49132;DHT22;35149;51.196;6.204;2022-12-07T11:55:05;9.80;71.70
49132;DHT22;35149;51.196;6.204;2022-12-07T11:57:39;9.80;71.70
49132;DHT22;35149;51.196;6.204;2022-12-07T12:00:16;9.80;71.50
49132;DHT22;35149;51.196;6.204;2022-12-07T12:02:51;9.80;71.20
49132;DHT22;35149;51.196;6.204;2022-12-07T12:05:21;9.80;71.00
49132;DHT22;35149;51.196;6.204;2022-12-07T12:07:56;9.70;70.90
49132;DHT22;35149;51.196;6.204;2022-12-07T12:10:55;9.70;71.20
49132;DHT22;35149;51.196;6.204;2022-12-07T12:14:01;9.70;71.20
49132;DHT22;35149;51.196;6.204;2022-12-07T12:19:57;9.70;71.30
49132;DHT22;35149;51.196;6.204;2022-12-07T12:22:41;9.70;71.40
49132;DHT22;35149;51.196;6.204;2022-12-07T12:25:27;9.60;71.20
49132;DHT22;35149;51.196;6.204;2022-12-07T12:27:57;9.70;71.20
49132;DHT22;35149;51.196;6.204;2022-12-07T12:30:37;9.70;71.50
49132;DHT22;35149;51.196;6.204;2022-12-07T12:33:20;9.70;71.50
49132;DHT22;35149;51.196;6.204;2022-12-07T12:46:56;10.10;71.80
49132;DHT22;35149;51.196;6.204;2022-12-07T12:50:17;10.30;72.00
49132;DHT22;35149;51.196;6.204;2022-12-07T12:55:01;10.50;71.10
49132;DHT22;35149;51.196;6.204;2022-12-07T12:57:38;10.50;70.90
49132;DHT22;35149;51.196;6.204;2022-12-07T13:00:22;10.60;70.90
49132;DHT22;35149;51.196;6.204;2022-12-07T13:02:52;10.70;70.00
49132;DHT22;35149;51.196;6.204;2022-12-07T13:05:28;10.70;70.10
49132;DHT22;35149;51.196;6.204;2022-12-07T13:08:24;10.80;69.70
49132;DHT22;35149;51.196;6.204;2022-12-07T13:11:20;10.80;69.00
49132;DHT22;35149;51.196;6.204;2022-12-07T13:13:51;10.80;68.60
49132;DHT22;35149;51.196;6.204;2022-12-07T13:18:50;10.80;68.80
49132;DHT22;35149;51.196;6.204;2022-12-07T13:29:17;10.80;68.40
49132;DHT22;35149;51.196;6.204;2022-12-07T13:31:47;10.80;68.00
49132;DHT22;35149;51.196;6.204;2022-12-07T13:37:08;10.70;68.00
49132;DHT22;35149;51.196;6.204;2022-12-07T13:39:45;10.60;68.20
49132;DHT22;35149;51.196;6.204;2022-12-07T13:42:25;10.60;67.70
49132;DHT22;35149;51.196;6.204;2022-12-07T13:44:53;10.50;67.70
49132;DHT22;35149;51.196;6.204;2022-12-07T13:47:36;10.50;68.20
49132;DHT22;35149;51.196;6.204;2022-12-07T13:50:27;10.40;68.00
49132;DHT22;35149;51.196;6.204;2022-12-07T13:52:59;10.40;67.70
49132;DHT22;35149;51.196;6.204;2022-12-07T13:55:27;10.30;68.30
49132;DHT22;35149;51.196;6.204;2022-12-07T13:57:57;10.30;68.40
49132;DHT22;35149;51.196;6.204;2022-12-07T14:00:26;10.20;68.50
49132;DHT22;35149;51.196;6.204;2022-12-07T14:05:43;10.10;68.60
49132;DHT22;35149;51.196;6.204;2022-12-07T14:16:01;10.10;68.50
49132;DHT22;35149;51.196;6.204;2022-12-07T14:18:39;10.00;68.80
49132;DHT22;35149;51.196;6.204;2022-12-07T14:23:37;10.00;68.70
49132;DHT22;35149;51.196;6.204;2022-12-07T14:26:11;10.00;68.70
49132;DHT22;35149;51.196;6.204;2022-12-07T14:28:43;9.90;68.60
49132;DHT22;35149;51.196;6.204;2022-12-07T14:31:15;9.80;68.60
49132;DHT22;35149;51.196;6.204;2022-12-07T14:33:59;9.80;68.90
49132;DHT22;35149;51.196;6.204;2022-12-07T14:36:25;9.80;68.90
49132;DHT22;35149;51.196;6.204;2022-12-07T14:38:52;9.70;68.90
49132;DHT22;35149;51.196;6.204;2022-12-07T14:41:25;9.70;69.20
49132;DHT22;35149;51.196;6.204;2022-12-07T14:44:12;9.70;69.30
49132;DHT22;35149;51.196;6.204;2022-12-07T14:46:59;9.60;69.30
49132;DHT22;35149;51.196;6.204;2022-12-07T14:49:46;9.60;69.30
49132;DHT22;35149;51.196;6.204;2022-12-07T14:52:21;9.50;69.30
49132;DHT22;35149;51.196;6.204;2022-12-07T14:55:14;9.50;69.30
49132;DHT22;35149;51.196;6.204;2022-12-07T14:57:42;9.40;69.40
49132;DHT22;35149;51.196;6.204;2022-12-07T15:00:13;9.40;69.50
49132;DHT22;35149;51.196;6.204;2022-12-07T15:02:40;9.40;69.70
49132;DHT22;35149;51.196;6.204;2022-12-07T15:05:10;9.30;69.60
49132;DHT22;35149;51.196;6.204;2022-12-07T15:07:42;9.30;69.70
49132;DHT22;35149;51.196;6.204;2022-12-07T15:10:33;9.20;69.70
49132;DHT22;35149;51.196;6.204;2022-12-07T15:13:01;9.20;69.90
49132;DHT22;35149;51.196;6.204;2022-12-07T15:15:48;9.10;69.80
49132;DHT22;35149;51.196;6.204;2022-12-07T15:18:16;9.10;69.70
49132;DHT22;35149;51.196;6.204;2022-12-07T15:20:46;9.10;69.80
49132;DHT22;35149;51.196;6.204;2022-12-07T15:23:17;9.00;69.90
49132;DHT22;35149;51.196;6.204;2022-12-07T15:25:46;9.00;70.10
49132;DHT22;35149;51.196;6.204;2022-12-07T15:28:14;8.90;70.20
49132;DHT22;35149;51.196;6.204;2022-12-07T15:30:43;8.90;70.10
49132;DHT22;35149;51.196;6.204;2022-12-07T15:33:11;8.90;70.30
49132;DHT22;35149;51.196;6.204;2022-12-07T15:35:39;8.80;70.30
49132;DHT22;35149;51.196;6.204;2022-12-07T15:38:09;8.80;70.30
49132;DHT22;35149;51.196;6.204;2022-12-07T15:40:36;8.70;70.30
49132;DHT22;35149;51.196;6.204;2022-12-07T15:43:03;8.70;70.30
49132;DHT22;35149;51.196;6.204;2022-12-07T15:45:30;8.60;70.20
49132;DHT22;35149;51.196;6.204;2022-12-07T15:47:59;8.50;70.20
49132;DHT22;35149;51.196;6.204;2022-12-07T15:50:45;8.50;70.80
49132;DHT22;35149;51.196;6.204;2022-12-07T15:53:12;8.40;70.40
49132;DHT22;35149;51.196;6.204;2022-12-07T15:55:40;8.40;70.70
49132;DHT22;35149;51.196;6.204;2022-12-07T15:58:09;8.30;70.90
49132;DHT22;35149;51.196;6.204;2022-12-07T16:00:38;8.30;71.20
49132;DHT22;35149;51.196;6.204;2022-12-07T16:03:04;8.30;71.60
49132;DHT22;35149;51.196;6.204;2022-12-07T16:05:31;8.20;71.80
49132;DHT22;35149;51.196;6.204;2022-12-07T16:07:59;8.20;72.00
49132;DHT22;35149;51.196;6.204;2022-12-07T16:10:26;8.20;72.10
49132;DHT22;35149;51.196;6.204;2022-12-07T16:12:53;8.20;72.40
49132;DHT22;35149;51.196;6.204;2022-12-07T16:15:19;8.20;72.60
49132;DHT22;35149;51.196;6.204;2022-12-07T16:17:50;8.20;72.70
49132;DHT22;35149;51.196;6.204;2022-12-07T16:20:17;8.20;72.80
49132;DHT22;35149;51.196;6.204;2022-12-07T16:22:44;8.30;72.80
49132;DHT22;35149;51.196;6.204;2022-12-07T16:25:10;8.30;72.90
49132;DHT22;35149;51.196;6.204;2022-12-07T16:27:37;8.30;72.90
49132;DHT22;35149;51.196;6.204;2022-12-07T16:30:04;8.30;72.90
49132;DHT22;35149;51.196;6.204;2022-12-07T16:32:31;8.30;72.90
49132;DHT22;35149;51.196;6.204;2022-12-07T16:34:58;8.30;72.80
49132;DHT22;35149;51.196;6.204;2022-12-07T16:37:24;8.30;72.90
49132;DHT22;35149;51.196;6.204;2022-12-07T16:39:51;8.40;72.90
49132;DHT22;35149;51.196;6.204;2022-12-07T16:42:18;8.30;72.90
49132;DHT22;35149;51.196;6.204;2022-12-07T16:44:44;8.40;73.00
49132;DHT22;35149;51.196;6.204;2022-12-07T16:47:11;8.40;73.00
49132;DHT22;35149;51.196;6.204;2022-12-07T16:49:38;8.40;73.10
49132;DHT22;35149;51.196;6.204;2022-12-07T16:52:07;8.40;73.10
49132;DHT22;35149;51.196;6.204;2022-12-07T16:54:47;8.50;73.10
49132;DHT22;35149;51.196;6.204;2022-12-07T16:57:14;8.50;73.00
49132;DHT22;35149;51.196;6.204;2022-12-07T16:59:47;8.50;72.90
49132;DHT22;35149;51.196;6.204;2022-12-07T17:02:14;8.50;72.80
49132;DHT22;35149;51.196;6.204;2022-12-07T17:04:41;8.50;72.80
49132;DHT22;35149;51.196;6.204;2022-12-07T17:07:09;8.50;72.80
49132;DHT22;35149;51.196;6.204;2022-12-07T17:09:36;8.50;72.80
49132;DHT22;35149;51.196;6.204;2022-12-07T17:12:03;8.50;72.80
49132;DHT22;35149;51.196;6.204;2022-12-07T17:14:31;8.50;72.80
49132;DHT22;35149;51.196;6.204;2022-12-07T17:17:16;8.50;72.80
49132;DHT22;35149;51.196;6.204;2022-12-07T17:19:43;8.50;72.80
49132;DHT22;35149;51.196;6.204;2022-12-07T17:22:10;8.50;72.80
49132;DHT22;35149;51.196;6.204;2022-12-07T17:24:39;8.50;72.90
49132;DHT22;35149;51.196;6.204;2022-12-07T17:27:05;8.50;72.90
49132;DHT22;35149;51.196;6.204;2022-12-07T17:29:32;8.50;73.00
49132;DHT22;35149;51.196;6.204;2022-12-07T17:31:59;8.50;73.10
49132;DHT22;35149;51.196;6.204;2022-12-07T17:34:26;8.50;73.10
49132;DHT22;35149;51.196;6.204;2022-12-07T17:36:52;8.50;73.10
49132;DHT22;35149;51.196;6.204;2022-12-07T17:39:21;8.50;73.10
49132;DHT22;35149;51.196;6.204;2022-12-07T17:41:48;8.50;73.10
49132;DHT22;35149;51.196;6.204;2022-12-07T17:44:33;8.50;73.10
49132;DHT22;35149;51.196;6.204;2022-12-07T17:47:00;8.50;73.00
49132;DHT22;35149;51.196;6.204;2022-12-07T17:49:28;8.50;73.70
49132;DHT22;35149;51.196;6.204;2022-12-07T17:51:56;8.60;73.10
49132;DHT22;35149;51.196;6.204;2022-12-07T17:54:43;8.50;73.10
49132;DHT22;35149;51.196;6.204;2022-12-07T17:57:10;8.60;73.10
49132;DHT22;35149;51.196;6.204;2022-12-07T17:59:37;8.60;73.10
49132;DHT22;35149;51.196;6.204;2022-12-07T18:02:09;8.60;73.00
49132;DHT22;35149;51.196;6.204;2022-12-07T18:04:36;8.60;73.00